sensor_id;sensor_type;location;lat;lon;timestamp;pressure;altitude;pressure_sealevel;temperature;humidity
78671;BME280;68277;52.724;6.516;2024-03-02T00:02:43;100045.47;;;7.09;100.00
78671;BME280;68277;52.724;6.516;2024-03-02T00:05:17;100060.16;;;7.20;100.00
78671;BME280;68277;52.724;6.516;2024-03-02T00:07:43;100050.50;;;7.19;100.00
78671;BME280;68277;52.724;6.516;2024-03-02T00:10:10;100054.06;;;7.17;100.00
78671;BME280;68277;52.724;6.516;2024-03-02T00:12:40;100029.75;;;7.06;100.00
78671;BME280;68277;52.724;6.516;2024-03-02T00:15:43;100007.97;;;6.99;100.00
78671;BME280;68277;52.724;6.516;2024-03-02T00:18:11;100039.72;;;7.31;100.00
78671;BME280;68277;52.724;6.516;2024-03-02T00:20:38;100007.78;;;7.08;100.00
78671;BME280;68277;52.724;6.516;2024-03-02T00:23:05;100039.81;;;7.27;100.00
78671;BME280;68277;52.724;6.516;2024-03-02T00:25:41;100049.44;;;7.28;100.00
78671;BME280;68277;52.724;6.516;2024-03-02T00:28:19;100049.53;;;7.25;100.00
78671;BME280;68277;52.724;6.516;2024-03-02T00:30:58;100052.06;;;7.28;100.00
78671;BME280;68277;52.724;6.516;2024-03-02T00:33:32;100012.97;;;7.11;100.00
78671;BME280;68277;52.724;6.516;2024-03-02T00:35:59;100041.53;;;7.28;100.00
78671;BME280;68277;52.724;6.516;2024-03-02T00:38:25;100003.44;;;7.06;100.00
78671;BME280;68277;52.724;6.516;2024-03-02T00:40:52;100029.25;;;7.28;100.00
78671;BME280;68277;52.724;6.516;2024-03-02T00:43:47;100029.19;;;7.31;100.00
78671;BME280;68277;52.724;6.516;2024-03-02T00:46:15;99994.56;;;7.11;100.00
78671;BME280;68277;52.724;6.516;2024-03-02T00:48:53;100016.44;;;7.13;100.00
78671;BME280;68277;52.724;6.516;2024-03-02T00:51:20;100010.25;;;7.14;100.00
78671;BME280;68277;52.724;6.516;2024-03-02T00:53:46;100002.56;;;7.05;100.00
78671;BME280;68277;52.724;6.516;2024-03-02T00:56:12;99991.22;;;7.03;100.00
78671;BME280;68277;52.724;6.516;2024-03-02T00:58:39;99999.72;;;7.16;100.00
78671;BME280;68277;52.724;6.516;2024-03-02T01:01:05;99988.44;;;7.09;100.00
78671;BME280;68277;52.724;6.516;2024-03-02T01:03:31;99979.97;;;6.97;100.00
78671;BME280;68277;52.724;6.516;2024-03-02T01:05:57;99977.41;;;6.94;100.00
78671;BME280;68277;52.724;6.516;2024-03-02T01:08:23;100005.31;;;7.01;100.00
78671;BME280;68277;52.724;6.516;2024-03-02T01:10:49;100005.31;;;7.01;100.00
78671;BME280;68277;52.724;6.516;2024-03-02T01:13:15;100003.59;;;6.98;100.00
78671;BME280;68277;52.724;6.516;2024-03-02T01:15:40;100012.31;;;7.02;100.00
78671;BME280;68277;52.724;6.516;2024-03-02T01:18:06;100001.75;;;7.03;100.00
78671;BME280;68277;52.724;6.516;2024-03-02T01:20:31;99978.47;;;6.83;100.00
78671;BME280;68277;52.724;6.516;2024-03-02T01:22:58;99999.25;;;6.97;100.00
78671;BME280;68277;52.724;6.516;2024-03-02T01:25:24;100003.56;;;7.00;100.00
78671;BME280;68277;52.724;6.516;2024-03-02T01:27:50;100004.41;;;7.02;100.00
78671;BME280;68277;52.724;6.516;2024-03-02T01:30:16;99973.06;;;6.91;100.00
78671;BME280;68277;52.724;6.516;2024-03-02T01:32:41;100000.00;;;7.02;100.00
78671;BME280;68277;52.724;6.516;2024-03-02T01:35:07;99961.00;;;6.81;100.00
78671;BME280;68277;52.724;6.516;2024-03-02T01:37:33;99957.63;;;6.74;100.00
78671;BME280;68277;52.724;6.516;2024-03-02T01:39:58;100004.31;;;7.06;100.00
78671;BME280;68277;52.724;6.516;2024-03-02T01:42:24;99977.34;;;6.97;100.00
78671;BME280;68277;52.724;6.516;2024-03-02T01:44:50;99982.50;;;7.01;100.00
78671;BME280;68277;52.724;6.516;2024-03-02T01:47:16;99994.56;;;7.10;100.00
78671;BME280;68277;52.724;6.516;2024-03-02T01:49:41;99963.28;;;6.98;100.00
78671;BME280;68277;52.724;6.516;2024-03-02T01:52:07;100004.13;;;7.14;100.00
78671;BME280;68277;52.724;6.516;2024-03-02T01:54:33;99946.03;;;6.84;100.00
78671;BME280;68277;52.724;6.516;2024-03-02T01:57:14;99997.19;;;7.11;100.00
78671;BME280;68277;52.724;6.516;2024-03-02T01:59:40;99964.16;;;6.98;100.00
78671;BME280;68277;52.724;6.516;2024-03-02T02:02:05;99989.25;;;7.13;100.00
78671;BME280;68277;52.724;6.516;2024-03-02T02:07:31;99957.03;;;7.03;100.00
78671;BME280;68277;52.724;6.516;2024-03-02T02:09:57;99979.59;;;7.13;100.00
78671;BME280;68277;52.724;6.516;2024-03-02T02:12:23;99984.00;;;7.13;100.00
78671;BME280;68277;52.724;6.516;2024-03-02T02:14:50;99975.47;;;7.02;100.00
78671;BME280;68277;52.724;6.516;2024-03-02T02:17:16;99954.59;;;6.93;100.00
78671;BME280;68277;52.724;6.516;2024-03-02T02:19:42;99986.63;;;7.13;100.00
78671;BME280;68277;52.724;6.516;2024-03-02T02:22:08;99999.56;;;7.22;100.00
78671;BME280;68277;52.724;6.516;2024-03-02T02:24:34;99954.38;;;7.03;100.00
78671;BME280;68277;52.724;6.516;2024-03-02T02:26:59;99970.06;;;7.08;100.00
78671;BME280;68277;52.724;6.516;2024-03-02T02:29:25;99995.97;;;7.26;100.00
78671;BME280;68277;52.724;6.516;2024-03-02T02:31:50;99997.72;;;7.27;100.00
78671;BME280;68277;52.724;6.516;2024-03-02T02:34:16;99986.38;;;7.23;100.00
78671;BME280;68277;52.724;6.516;2024-03-02T02:36:42;99996.84;;;7.26;100.00
78671;BME280;68277;52.724;6.516;2024-03-02T02:39:11;99995.97;;;7.26;100.00
78671;BME280;68277;52.724;6.516;2024-03-02T02:41:38;99983.06;;;7.14;100.00
78671;BME280;68277;52.724;6.516;2024-03-02T02:44:04;100008.28;;;7.24;100.00
78671;BME280;68277;52.724;6.516;2024-03-02T02:46:30;99956.34;;;6.94;100.00
78671;BME280;68277;52.724;6.516;2024-03-02T02:48:56;99974.47;;;7.07;100.00
78671;BME280;68277;52.724;6.516;2024-03-02T02:51:21;99961.44;;;7.01;100.00
78671;BME280;68277;52.724;6.516;2024-03-02T02:53:47;99984.00;;;7.13;100.00
78671;BME280;68277;52.724;6.516;2024-03-02T02:56:12;99996.13;;;7.20;100.00
78671;BME280;68277;52.724;6.516;2024-03-02T02:58:40;99997.00;;;7.20;100.00
78671;BME280;68277;52.724;6.516;2024-03-02T03:01:06;100003.03;;;7.24;100.00
78671;BME280;68277;52.724;6.516;2024-03-02T03:03:33;99961.34;;;7.06;100.00
78671;BME280;68277;52.724;6.516;2024-03-02T03:05:58;99976.88;;;7.16;100.00
78671;BME280;68277;52.724;6.516;2024-03-02T03:08:24;99952.69;;;7.01;100.00
78671;BME280;68277;52.724;6.516;2024-03-02T03:10:50;99983.00;;;7.18;100.00
78671;BME280;68277;52.724;6.516;2024-03-02T03:13:15;99951.03;;;6.97;100.00
78671;BME280;68277;52.724;6.516;2024-03-02T03:15:41;99963.09;;;7.05;100.00
78671;BME280;68277;52.724;6.516;2024-03-02T03:18:07;99969.19;;;7.07;100.00
78671;BME280;68277;52.724;6.516;2024-03-02T03:20:41;99969.19;;;7.09;100.00
78671;BME280;68277;52.724;6.516;2024-03-02T03:23:09;99937.91;;;6.95;100.00
78671;BME280;68277;52.724;6.516;2024-03-02T03:25:40;99931.69;;;6.98;100.00
78671;BME280;68277;52.724;6.516;2024-03-02T03:28:06;99932.56;;;6.98;100.00
78671;BME280;68277;52.724;6.516;2024-03-02T03:30:32;99934.38;;;6.96;100.00
78671;BME280;68277;52.724;6.516;2024-03-02T03:32:57;99947.47;;;6.99;100.00
78671;BME280;68277;52.724;6.516;2024-03-02T03:35:23;99946.59;;;6.99;100.00
78671;BME280;68277;52.724;6.516;2024-03-02T03:37:48;99972.59;;;7.12;100.00
78671;BME280;68277;52.724;6.516;2024-03-02T03:40:14;99970.00;;;7.11;100.00
78671;BME280;68277;52.724;6.516;2024-03-02T03:42:39;99951.97;;;6.94;100.00
78671;BME280;68277;52.724;6.516;2024-03-02T03:45:08;99952.75;;;6.98;100.00
78671;BME280;68277;52.724;6.516;2024-03-02T03:47:34;99936.34;;;6.86;100.00
78671;BME280;68277;52.724;6.516;2024-03-02T03:49:59;99971.00;;;7.05;100.00
78671;BME280;68277;52.724;6.516;2024-03-02T03:52:25;99968.41;;;7.04;100.00
78671;BME280;68277;52.724;6.516;2024-03-02T03:54:50;99980.53;;;7.11;100.00
78671;BME280;68277;52.724;6.516;2024-03-02T03:57:16;99950.31;;;6.88;100.00
78671;BME280;68277;52.724;6.516;2024-03-02T03:59:42;99980.66;;;7.05;100.00
78671;BME280;68277;52.724;6.516;2024-03-02T04:02:09;99982.34;;;7.07;100.00
78671;BME280;68277;52.724;6.516;2024-03-02T04:04:35;99977.25;;;7.00;100.00
78671;BME280;68277;52.724;6.516;2024-03-02T04:07:01;99941.81;;;6.77;100.00
78671;BME280;68277;52.724;6.516;2024-03-02T04:09:26;99966.19;;;6.84;100.00
78671;BME280;68277;52.724;6.516;2024-03-02T04:11:52;99972.28;;;6.87;100.00
78671;BME280;68277;52.724;6.516;2024-03-02T04:14:18;99981.78;;;6.95;100.00
78671;BME280;68277;52.724;6.516;2024-03-02T04:16:44;99989.47;;;7.04;100.00
78671;BME280;68277;52.724;6.516;2024-03-02T04:19:10;99961.81;;;6.84;100.00
78671;BME280;68277;52.724;6.516;2024-03-02T04:21:35;99930.78;;;6.60;100.00
78671;BME280;68277;52.724;6.516;2024-03-02T04:24:01;99954.25;;;6.69;100.00
78671;BME280;68277;52.724;6.516;2024-03-02T04:26:27;99970.69;;;6.79;100.00
78671;BME280;68277;52.724;6.516;2024-03-02T04:28:53;99994.06;;;6.94;100.00
78671;BME280;68277;52.724;6.516;2024-03-02T04:31:19;99967.28;;;6.74;100.00
78671;BME280;68277;52.724;6.516;2024-03-02T04:33:45;99975.94;;;6.79;100.00
78671;BME280;68277;52.724;6.516;2024-03-02T04:36:11;99990.75;;;6.84;100.00
78671;BME280;68277;52.724;6.516;2024-03-02T04:38:37;100008.97;;;6.94;100.00
78671;BME280;68277;52.724;6.516;2024-03-02T04:41:06;100003.16;;;6.78;100.00
78671;BME280;68277;52.724;6.516;2024-03-02T04:43:33;100019.63;;;6.87;100.00
78671;BME280;68277;52.724;6.516;2024-03-02T04:45:59;100001.28;;;6.83;100.00
78671;BME280;68277;52.724;6.516;2024-03-02T04:48:41;100027.44;;;6.90;100.00
78671;BME280;68277;52.724;6.516;2024-03-02T04:51:07;100012.84;;;6.74;100.00
78671;BME280;68277;52.724;6.516;2024-03-02T04:53:32;99992.16;;;6.59;100.00
78671;BME280;68277;52.724;6.516;2024-03-02T04:55:58;100007.78;;;6.65;100.00
78671;BME280;68277;52.724;6.516;2024-03-02T04:58:43;100010.38;;;6.67;100.00
78671;BME280;68277;52.724;6.516;2024-03-02T05:01:09;100028.53;;;6.79;100.00
78671;BME280;68277;52.724;6.516;2024-03-02T05:03:35;99986.28;;;6.45;100.00
78671;BME280;68277;52.724;6.516;2024-03-02T05:06:01;100027.94;;;6.66;100.00
78671;BME280;68277;52.724;6.516;2024-03-02T05:08:27;100009.13;;;6.42;100.00
78671;BME280;68277;52.724;6.516;2024-03-02T05:10:52;100047.53;;;6.49;100.00
78671;BME280;68277;52.724;6.516;2024-03-02T05:13:18;100057.19;;;6.50;100.00
78671;BME280;68277;52.724;6.516;2024-03-02T05:15:43;100011.28;;;6.22;100.00
78671;BME280;68277;52.724;6.516;2024-03-02T05:18:09;100054.47;;;6.53;100.00
78671;BME280;68277;52.724;6.516;2024-03-02T05:20:34;100017.19;;;6.33;100.00
78671;BME280;68277;52.724;6.516;2024-03-02T05:23:00;100050.03;;;6.55;100.00
78671;BME280;68277;52.724;6.516;2024-03-02T05:25:25;100017.13;;;6.36;100.00
78671;BME280;68277;52.724;6.516;2024-03-02T05:27:51;100050.00;;;6.58;100.00
78671;BME280;68277;52.724;6.516;2024-03-02T05:30:17;100066.63;;;6.58;100.00
78671;BME280;68277;52.724;6.516;2024-03-02T05:32:42;100039.00;;;6.38;100.00
78671;BME280;68277;52.724;6.516;2024-03-02T05:35:08;100059.69;;;6.56;100.00
78671;BME280;68277;52.724;6.516;2024-03-02T05:37:34;100067.56;;;6.56;100.00
78671;BME280;68277;52.724;6.516;2024-03-02T05:40:00;100052.84;;;6.46;100.00
78671;BME280;68277;52.724;6.516;2024-03-02T05:42:26;100060.69;;;6.49;100.00
78671;BME280;68277;52.724;6.516;2024-03-02T05:44:52;100062.38;;;6.51;100.00
78671;BME280;68277;52.724;6.516;2024-03-02T05:47:18;100041.72;;;6.33;100.00
78671;BME280;68277;52.724;6.516;2024-03-02T05:49:44;100071.25;;;6.47;100.00
78671;BME280;68277;52.724;6.516;2024-03-02T05:52:09;100067.81;;;6.41;100.00
78671;BME280;68277;52.724;6.516;2024-03-02T05:54:36;100077.41;;;6.43;100.00
78671;BME280;68277;52.724;6.516;2024-03-02T05:57:02;100076.66;;;6.37;100.00
78671;BME280;68277;52.724;6.516;2024-03-02T05:59:42;100053.22;;;6.25;100.00
78671;BME280;68277;52.724;6.516;2024-03-02T06:02:08;100090.56;;;6.43;100.00
78671;BME280;68277;52.724;6.516;2024-03-02T06:04:34;100083.59;;;6.41;100.00
78671;BME280;68277;52.724;6.516;2024-03-02T06:06:59;100101.97;;;6.42;100.00
78671;BME280;68277;52.724;6.516;2024-03-02T06:09:25;100082.22;;;6.20;100.00
78671;BME280;68277;52.724;6.516;2024-03-02T06:11:51;100104.81;;;6.30;100.00
78671;BME280;68277;52.724;6.516;2024-03-02T06:14:19;100072.81;;;6.07;100.00
78671;BME280;68277;52.724;6.516;2024-03-02T06:16:45;100107.56;;;6.22;100.00
78671;BME280;68277;52.724;6.516;2024-03-02T06:19:10;100073.75;;;6.01;100.00
78671;BME280;68277;52.724;6.516;2024-03-02T06:21:36;100106.81;;;6.16;100.00
78671;BME280;68277;52.724;6.516;2024-03-02T06:24:08;100093.00;;;6.03;100.00
78671;BME280;68277;52.724;6.516;2024-03-02T06:26:34;100114.81;;;6.08;100.00
78671;BME280;68277;52.724;6.516;2024-03-02T06:28:59;100095.72;;;5.96;100.00
78671;BME280;68277;52.724;6.516;2024-03-02T06:31:27;100111.44;;;5.99;100.00
78671;BME280;68277;52.724;6.516;2024-03-02T06:33:53;100094.09;;;5.89;100.00
78671;BME280;68277;52.724;6.516;2024-03-02T06:36:18;100097.66;;;5.85;100.00
78671;BME280;68277;52.724;6.516;2024-03-02T06:38:44;100095.84;;;5.90;100.00
78671;BME280;68277;52.724;6.516;2024-03-02T06:41:09;100119.25;;;6.05;100.00
78671;BME280;68277;52.724;6.516;2024-03-02T06:43:36;100119.25;;;6.05;100.00
78671;BME280;68277;52.724;6.516;2024-03-02T06:46:01;100100.91;;;6.02;100.00
78671;BME280;68277;52.724;6.516;2024-03-02T06:48:29;100139.75;;;6.37;100.00
78671;BME280;68277;52.724;6.516;2024-03-02T06:50:55;100099.53;;;6.79;100.00
78671;BME280;68277;52.724;6.516;2024-03-02T06:53:21;100096.16;;;8.33;100.00
78671;BME280;68277;52.724;6.516;2024-03-02T06:55:47;100063.88;;;8.89;100.00
78671;BME280;68277;52.724;6.516;2024-03-02T06:58:13;100082.84;;;9.33;100.00
78671;BME280;68277;52.724;6.516;2024-03-02T07:00:41;100080.03;;;9.96;99.63
78671;BME280;68277;52.724;6.516;2024-03-02T07:03:06;100124.31;;;10.17;97.66
78671;BME280;68277;52.724;6.516;2024-03-02T07:05:32;100115.31;;;9.36;100.00
78671;BME280;68277;52.724;6.516;2024-03-02T07:07:57;100106.88;;;8.61;100.00
78671;BME280;68277;52.724;6.516;2024-03-02T07:10:23;100102.69;;;8.17;100.00
78671;BME280;68277;52.724;6.516;2024-03-02T07:12:48;100088.94;;;8.04;100.00
78671;BME280;68277;52.724;6.516;2024-03-02T07:15:14;100140.31;;;8.22;100.00
78671;BME280;68277;52.724;6.516;2024-03-02T07:17:59;100126.94;;;8.33;100.00
78671;BME280;68277;52.724;6.516;2024-03-02T07:20:24;100127.03;;;9.26;100.00
78671;BME280;68277;52.724;6.516;2024-03-02T07:22:50;100108.97;;;10.54;100.00
78671;BME280;68277;52.724;6.516;2024-03-02T07:25:15;100104.66;;;11.01;98.00
78671;BME280;68277;52.724;6.516;2024-03-02T07:27:41;100135.88;;;11.87;97.68
78671;BME280;68277;52.724;6.516;2024-03-02T07:30:07;100109.75;;;12.21;91.57
78671;BME280;68277;52.724;6.516;2024-03-02T07:32:33;100135.03;;;12.08;88.72
78671;BME280;68277;52.724;6.516;2024-03-02T07:34:58;100149.22;;;12.51;97.00
78671;BME280;68277;52.724;6.516;2024-03-02T07:37:27;100157.81;;;13.39;80.78
78671;BME280;68277;52.724;6.516;2024-03-02T07:39:53;100134.47;;;13.46;87.41
78671;BME280;68277;52.724;6.516;2024-03-02T07:42:18;100143.69;;;13.19;81.31
78671;BME280;68277;52.724;6.516;2024-03-02T07:44:44;100138.56;;;12.52;90.96
78671;BME280;68277;52.724;6.516;2024-03-02T07:47:10;100179.06;;;11.91;96.31
78671;BME280;68277;52.724;6.516;2024-03-02T07:49:36;100141.22;;;12.09;93.86
78671;BME280;68277;52.724;6.516;2024-03-02T07:52:01;100161.88;;;12.01;89.67
78671;BME280;68277;52.724;6.516;2024-03-02T07:54:27;100189.00;;;11.12;98.28
78671;BME280;68277;52.724;6.516;2024-03-02T07:56:53;100194.00;;;11.21;100.00
78671;BME280;68277;52.724;6.516;2024-03-02T07:59:18;100194.97;;;11.68;95.13
78671;BME280;68277;52.724;6.516;2024-03-02T08:01:44;100134.72;;;11.94;100.00
78671;BME280;68277;52.724;6.516;2024-03-02T08:04:10;100150.63;;;13.01;83.91
78671;BME280;68277;52.724;6.516;2024-03-02T08:06:35;100183.78;;;14.10;91.11
78671;BME280;68277;52.724;6.516;2024-03-02T08:09:02;100186.69;;;15.47;84.76
78671;BME280;68277;52.724;6.516;2024-03-02T08:11:34;100185.50;;;16.95;65.21
78671;BME280;68277;52.724;6.516;2024-03-02T08:14:00;100156.75;;;18.27;68.30
78671;BME280;68277;52.724;6.516;2024-03-02T08:16:25;100161.78;;;19.63;57.96
78671;BME280;68277;52.724;6.516;2024-03-02T08:18:51;100165.06;;;20.77;57.53
78671;BME280;68277;52.724;6.516;2024-03-02T08:21:17;100161.84;;;20.96;56.70
78671;BME280;68277;52.724;6.516;2024-03-02T08:23:43;100169.47;;;20.55;54.52
78671;BME280;68277;52.724;6.516;2024-03-02T08:26:09;100199.19;;;20.77;54.25
78671;BME280;68277;52.724;6.516;2024-03-02T08:28:35;100174.72;;;20.07;46.98
78671;BME280;68277;52.724;6.516;2024-03-02T08:31:03;100137.72;;;19.37;54.05
78671;BME280;68277;52.724;6.516;2024-03-02T08:33:29;100203.94;;;18.01;62.46
78671;BME280;68277;52.724;6.516;2024-03-02T08:35:55;100180.16;;;16.79;64.56
78671;BME280;68277;52.724;6.516;2024-03-02T08:38:21;100197.38;;;18.33;64.14
78671;BME280;68277;52.724;6.516;2024-03-02T08:40:46;100166.94;;;19.66;51.78
78671;BME280;68277;52.724;6.516;2024-03-02T08:43:12;100199.59;;;21.42;51.37
78671;BME280;68277;52.724;6.516;2024-03-02T08:45:38;100198.84;;;21.05;50.00
78671;BME280;68277;52.724;6.516;2024-03-02T08:48:05;100203.47;;;21.03;43.36
78671;BME280;68277;52.724;6.516;2024-03-02T08:50:32;100213.03;;;21.42;48.08
78671;BME280;68277;52.724;6.516;2024-03-02T08:52:58;100203.88;;;21.09;51.83
78671;BME280;68277;52.724;6.516;2024-03-02T08:55:23;100196.53;;;20.88;51.33
78671;BME280;68277;52.724;6.516;2024-03-02T08:57:49;100162.03;;;20.82;43.71
78671;BME280;68277;52.724;6.516;2024-03-02T09:00:16;100206.06;;;21.04;49.57
78671;BME280;68277;52.724;6.516;2024-03-02T09:02:43;100202.44;;;20.20;44.28
78671;BME280;68277;52.724;6.516;2024-03-02T09:05:09;100203.16;;;18.27;56.91
78671;BME280;68277;52.724;6.516;2024-03-02T09:07:34;100160.88;;;16.27;68.92
78671;BME280;68277;52.724;6.516;2024-03-02T09:10:00;100213.44;;;15.79;65.76
78671;BME280;68277;52.724;6.516;2024-03-02T09:12:28;100222.66;;;15.04;65.16
78671;BME280;68277;52.724;6.516;2024-03-02T09:14:54;100230.00;;;13.89;69.92
78671;BME280;68277;52.724;6.516;2024-03-02T09:17:19;100205.31;;;13.27;71.62
78671;BME280;68277;52.724;6.516;2024-03-02T09:19:45;100219.06;;;13.36;72.52
78671;BME280;68277;52.724;6.516;2024-03-02T09:22:10;100208.16;;;12.37;75.13
78671;BME280;68277;52.724;6.516;2024-03-02T09:24:36;100216.84;;;11.48;80.18
78671;BME280;68277;52.724;6.516;2024-03-02T09:27:01;100196.06;;;10.86;82.57
78671;BME280;68277;52.724;6.516;2024-03-02T09:29:27;100217.22;;;10.88;83.75
78671;BME280;68277;52.724;6.516;2024-03-02T09:31:52;100203.84;;;11.42;81.36
78671;BME280;68277;52.724;6.516;2024-03-02T09:34:18;100236.28;;;13.28;73.79
78671;BME280;68277;52.724;6.516;2024-03-02T09:36:45;100227.06;;;13.16;73.75
78671;BME280;68277;52.724;6.516;2024-03-02T09:39:11;100237.56;;;12.97;72.15
78671;BME280;68277;52.724;6.516;2024-03-02T09:41:37;100240.47;;;13.53;72.99
78671;BME280;68277;52.724;6.516;2024-03-02T09:44:04;100237.28;;;13.45;71.05
78671;BME280;68277;52.724;6.516;2024-03-02T09:46:30;100243.97;;;12.92;74.60
78671;BME280;68277;52.724;6.516;2024-03-02T09:48:55;100236.88;;;13.14;74.80
78671;BME280;68277;52.724;6.516;2024-03-02T09:51:21;100193.03;;;13.83;70.97
78671;BME280;68277;52.724;6.516;2024-03-02T09:53:47;100228.28;;;14.07;69.96
78671;BME280;68277;52.724;6.516;2024-03-02T09:56:23;100232.81;;;14.05;68.67
78671;BME280;68277;52.724;6.516;2024-03-02T09:58:49;100228.16;;;15.53;63.19
78671;BME280;68277;52.724;6.516;2024-03-02T10:01:14;100229.78;;;15.21;66.16
78671;BME280;68277;52.724;6.516;2024-03-02T10:03:40;100237.97;;;13.89;66.42
78671;BME280;68277;52.724;6.516;2024-03-02T10:08:44;100181.13;;;12.06;76.46
78671;BME280;68277;52.724;6.516;2024-03-02T10:11:10;100195.72;;;12.17;73.31
78671;BME280;68277;52.724;6.516;2024-03-02T10:13:36;100221.22;;;11.98;78.73
78671;BME280;68277;52.724;6.516;2024-03-02T10:16:12;100231.88;;;13.07;74.35
78671;BME280;68277;52.724;6.516;2024-03-02T10:18:40;100195.16;;;14.68;67.41
78671;BME280;68277;52.724;6.516;2024-03-02T10:21:13;100210.69;;;16.13;64.61
78671;BME280;68277;52.724;6.516;2024-03-02T10:23:39;100202.09;;;15.91;62.24
78671;BME280;68277;52.724;6.516;2024-03-02T10:26:17;100214.97;;;16.15;59.08
78671;BME280;68277;52.724;6.516;2024-03-02T10:28:46;100217.47;;;16.50;57.05
78671;BME280;68277;52.724;6.516;2024-03-02T10:31:13;100191.06;;;16.29;54.84
78671;BME280;68277;52.724;6.516;2024-03-02T10:33:39;100218.59;;;16.14;57.42
78671;BME280;68277;52.724;6.516;2024-03-02T10:36:05;100215.28;;;15.61;58.55
78671;BME280;68277;52.724;6.516;2024-03-02T10:38:31;100228.13;;;15.36;61.58
78671;BME280;68277;52.724;6.516;2024-03-02T10:40:57;100211.28;;;15.85;65.22
78671;BME280;68277;52.724;6.516;2024-03-02T10:43:25;100187.88;;;15.90;64.51
78671;BME280;68277;52.724;6.516;2024-03-02T10:45:52;100193.53;;;15.68;63.88
78671;BME280;68277;52.724;6.516;2024-03-02T10:48:18;100214.53;;;16.07;57.20
78671;BME280;68277;52.724;6.516;2024-03-02T10:50:44;100169.22;;;15.57;58.14
78671;BME280;68277;52.724;6.516;2024-03-02T10:53:10;100191.19;;;15.62;67.28
78671;BME280;68277;52.724;6.516;2024-03-02T10:55:36;100191.91;;;15.15;67.13
78671;BME280;68277;52.724;6.516;2024-03-02T10:58:04;100215.28;;;15.27;63.27
78671;BME280;68277;52.724;6.516;2024-03-02T11:00:33;100200.53;;;15.37;69.56
78671;BME280;68277;52.724;6.516;2024-03-02T11:03:06;100216.16;;;15.44;63.85
78671;BME280;68277;52.724;6.516;2024-03-02T11:05:38;100219.81;;;15.25;62.58
78671;BME280;68277;52.724;6.516;2024-03-02T11:08:08;100194.38;;;14.66;64.41
78671;BME280;68277;52.724;6.516;2024-03-02T11:10:48;100193.28;;;14.70;63.75
78671;BME280;68277;52.724;6.516;2024-03-02T11:13:24;100189.47;;;14.76;63.57
78671;BME280;68277;52.724;6.516;2024-03-02T11:15:55;100210.41;;;15.00;65.67
78671;BME280;68277;52.724;6.516;2024-03-02T11:18:24;100196.75;;;14.89;60.35
78671;BME280;68277;52.724;6.516;2024-03-02T11:20:51;100214.94;;;14.98;66.09
78671;BME280;68277;52.724;6.516;2024-03-02T11:23:17;100213.47;;;14.57;63.72
78671;BME280;68277;52.724;6.516;2024-03-02T11:25:42;100196.22;;;14.47;63.38
78671;BME280;68277;52.724;6.516;2024-03-02T11:28:08;100208.16;;;14.57;65.74
78671;BME280;68277;52.724;6.516;2024-03-02T11:33:07;100189.59;;;14.37;67.33
78671;BME280;68277;52.724;6.516;2024-03-02T11:35:36;100194.66;;;14.43;67.45
78671;BME280;68277;52.724;6.516;2024-03-02T11:38:06;100204.13;;;14.49;62.85
78671;BME280;68277;52.724;6.516;2024-03-02T11:40:32;100212.78;;;14.35;66.50
78671;BME280;68277;52.724;6.516;2024-03-02T11:42:59;100207.16;;;14.41;64.75
78671;BME280;68277;52.724;6.516;2024-03-02T11:45:26;100206.50;;;14.17;64.74
78671;BME280;68277;52.724;6.516;2024-03-02T11:47:55;100206.88;;;13.71;65.54
78671;BME280;68277;52.724;6.516;2024-03-02T11:50:35;100170.44;;;13.73;64.98
78671;BME280;68277;52.724;6.516;2024-03-02T11:53:05;100162.53;;;14.09;65.71
78671;BME280;68277;52.724;6.516;2024-03-02T11:55:35;100170.47;;;14.10;66.20
78671;BME280;68277;52.724;6.516;2024-03-02T11:58:03;100203.66;;;14.02;64.59
78671;BME280;68277;52.724;6.516;2024-03-02T12:00:29;100183.16;;;13.66;63.71
78671;BME280;68277;52.724;6.516;2024-03-02T12:03:05;100208.59;;;13.72;64.24
78671;BME280;68277;52.724;6.516;2024-03-02T12:05:35;100188.56;;;13.45;64.26
78671;BME280;68277;52.724;6.516;2024-03-02T12:08:02;100203.97;;;13.57;63.82
78671;BME280;68277;52.724;6.516;2024-03-02T12:10:29;100171.59;;;13.47;62.55
78671;BME280;68277;52.724;6.516;2024-03-02T12:12:59;100204.88;;;13.76;63.09
78671;BME280;68277;52.724;6.516;2024-03-02T12:15:27;100179.81;;;13.61;63.94
78671;BME280;68277;52.724;6.516;2024-03-02T12:17:58;100197.03;;;13.73;63.58
78671;BME280;68277;52.724;6.516;2024-03-02T12:20:25;100189.31;;;13.48;64.50
78671;BME280;68277;52.724;6.516;2024-03-02T12:23:04;100180.06;;;13.37;65.12
78671;BME280;68277;52.724;6.516;2024-03-02T12:25:31;100189.78;;;13.77;65.13
78671;BME280;68277;52.724;6.516;2024-03-02T12:28:00;100190.59;;;13.97;65.75
78671;BME280;68277;52.724;6.516;2024-03-02T12:30:29;100190.88;;;13.91;64.68
78671;BME280;68277;52.724;6.516;2024-03-02T12:32:58;100172.25;;;13.73;64.37
78671;BME280;68277;52.724;6.516;2024-03-02T12:35:24;100153.66;;;13.52;63.71
78671;BME280;68277;52.724;6.516;2024-03-02T12:37:52;100150.78;;;13.57;62.88
78671;BME280;68277;52.724;6.516;2024-03-02T12:40:19;100128.50;;;13.41;64.41
78671;BME280;68277;52.724;6.516;2024-03-02T12:42:46;100185.56;;;13.91;64.55
78671;BME280;68277;52.724;6.516;2024-03-02T12:45:12;100179.59;;;14.05;63.12
78671;BME280;68277;52.724;6.516;2024-03-02T12:47:40;100174.34;;;14.03;61.59
78671;BME280;68277;52.724;6.516;2024-03-02T12:50:07;100159.41;;;14.01;63.66
78671;BME280;68277;52.724;6.516;2024-03-02T12:52:33;100136.16;;;13.86;64.50
78671;BME280;68277;52.724;6.516;2024-03-02T12:55:00;100172.91;;;13.96;63.36
78671;BME280;68277;52.724;6.516;2024-03-02T12:57:27;100163.41;;;13.91;62.07
78671;BME280;68277;52.724;6.516;2024-03-02T13:00:05;100147.16;;;13.97;65.77
78671;BME280;68277;52.724;6.516;2024-03-02T13:02:39;100147.22;;;14.14;64.29